CheckWX is a tool to help pilots better visualize weather data.  It is not intended as a substitute for an official pre-flight weather briefing.

08:20:44 UTC

KMCK METAR
Mc Cook Ben Nelson Regional Airport
Mc Cook, Nebraska, USA
Current

28 mins ago

KMCK 230753Z AUTO 33003KT 10SM CLR 06/M01 A3020 RMK AO2 SLP225 T00561006
Observed
Apr-23 @ 07:53 UTC
Wind
  • 330° at 3 KTS
Visibility
10 SM
Flight Rules
VFR
Cloud Levels
  • Clear skies
Temperature
C / 43°F
Dewpoint
-1°C / 30°F
Humidity
61%
Altimeter
30.2" Hg
Pressure
1022.72 hPa
Previous

1 hour ago

KMCK 230653Z AUTO 00000KT 10SM CLR 06/M01 A3021 RMK AO2 SLP230 T00611006
Observed
Apr-23 @ 06:53 UTC
Visibility
10 SM
Flight Rules
VFR
Cloud Levels
  • Clear skies
Temperature
C / 43°F
Dewpoint
-1°C / 30°F
Humidity
61%
Altimeter
30.21" Hg
Pressure
1023.02 hPa
Previous

2 hours ago

KMCK 230553Z AUTO 00000KT 10SM CLR 07/M01 A3020 RMK AO2 SLP229 T00671006 10167 20061 401890061 50004
Observed
Apr-23 @ 05:53 UTC
Visibility
10 SM
Flight Rules
VFR
Cloud Levels
  • Clear skies
Temperature
C / 45°F
Dewpoint
-1°C / 30°F
Humidity
57%
Altimeter
30.2" Hg
Pressure
1022.72 hPa